Buoy 17652

sailwx.info

Track history (hours):
 
Tides and Currents Weather Stations Pressure Air Temp Water Temp Dewpoint Dewpoint Depression Visibility Wind Speed Wind Dir Waves Ship Positions

Drifting buoy 17652

Last reported at 2017-Mar-24 18:00 UTC. Time now 2017-Mar-24 22:05 UTC.
Position S 39°56' E 061°14'.

Barometer 1027.8 mb
Water temperature 18.0 ° C

Date/timePositionNaut miles runAvg speedWind from/ knotsBaromVisibWave heightAir tempDewpointWater temp
2017-Mar-24 18:00S 39°56' E 061°14'1 0.4 1027.8 18.0
2017-Mar-24 16:00S 39°56' E 061°14'1 0.9 1028.2 17.9
2017-Mar-24 15:00S 39°56' E 061°13'0 0.5 1027.9 18.0
2017-Mar-24 14:00S 39°56' E 061°13'2 0.6 1027.8 18.0
2017-Mar-24 11:00S 39°57' E 061°11'4 0.8 1027.7 17.9
2017-Mar-24 06:00S 39°57' E 061°05'0 0.5 1028.7 18.0
2017-Mar-24 05:00S 39°57' E 061°05'1 0.9 1028.5 18.1
2017-Mar-24 04:00S 39°57' E 061°04'1 0.6 1028.1 18.1
2017-Mar-24 03:00S 39°58' E 061°04'0 0.5 1027.9 18.2
2017-Mar-24 02:00S 39°58' E 061°03'0 0.5 1027.6 18.3
2017-Mar-24 01:00S 39°58' E 061°02'1 1.3 1027.3 18.3
2017-Mar-24 00:00S 39°59' E 061°02'0 0.0 1027.2 18.3
2017-Mar-23 23:00S 39°59' E 061°02'0 0.0 1027.4 18.3
2017-Mar-23 22:00S 39°59' E 061°02'4 1.0 1027.6 18.4
2017-Mar-23 18:00S 40°00' E 060°57'0 0.0 1027.1 18.4
2017-Mar-23 17:00S 40°00' E 060°57'1 1.4 1027.1 18.4
2017-Mar-23 16:00S 40°00' E 060°55'2 0.5 1026.8 18.4
2017-Mar-23 12:00S 39°59' E 060°53'0 0.5 1025.7 18.5
2017-Mar-23 11:00S 39°59' E 060°52'2 0.4 1025.8 18.5
2017-Mar-23 05:00S 40°01' E 060°50'0 0.0 1026.4 18.3
2017-Mar-23 04:00S 40°01' E 060°50'1 0.5 1025.9 18.3
2017-Mar-23 02:00S 40°01' E 060°49'1 1.1 1025.1 18.3
2017-Mar-23 01:00S 40°00' E 060°47'1 1.1 1024.5 18.3
2017-Mar-23 00:00S 40°01' E 060°46'0 0.0 1024.7 18.3
2017-Mar-22 23:00S 40°01' E 060°46'0 0.0 1024.6 18.3
2017-Mar-22 22:00S 40°01' E 060°46'1 1.1 1024.9 18.3
2017-Mar-22 21:00S 40°00' E 060°45'1 0.3 1025.1 18.3
2017-Mar-22 19:00S 39°59' E 060°45'0 0.0 1025.5 18.3
2017-Mar-22 13:00S 39°59' E 060°45'0 0.0 1023.7 18.4
2017-Mar-22 12:00S 39°59' E 060°45'1 0.8 1023.5 18.4
2017-Mar-22 11:00S 40°00' E 060°44'2 1.9 1022.9 18.4
2017-Mar-22 10:00S 40°01' E 060°42'1 0.2 1022.8 18.4
2017-Mar-22 06:00S 40°01' E 060°43'0 0.0 1022.4 18.3
2017-Mar-22 05:00S 40°01' E 060°43'2 2.2 1021.9 18.3
2017-Mar-22 04:00S 40°02' E 060°40'0 0.0 1021.2 18.2
2017-Mar-22 03:00S 40°02' E 060°40'2 1.8 1020.4 18.2
2017-Mar-22 02:00S 40°02' E 060°38'0 0.0 1019.3 18.2
2017-Mar-22 01:00S 40°02' E 060°38'1 0.4 1018.8 18.3
2017-Mar-21 22:00S 40°02' E 060°37'0 0.2 1017.9 18.4
2017-Mar-21 19:00S 40°02' E 060°36'0 0.0 1017.7 18.5
2017-Mar-21 18:00S 40°02' E 060°36'1 0.8 1017.8 18.5
2017-Mar-21 17:00S 40°02' E 060°35'1 0.8 1017.7 18.5
2017-Mar-21 16:00S 40°03' E 060°35'2 1.8 1017.4 18.6
2017-Mar-21 15:00S 40°03' E 060°32'0 0.5 1016.6 18.6
2017-Mar-21 14:00S 40°03' E 060°33'1 1.1 1016.1 18.6
2017-Mar-21 13:00S 40°04' E 060°32'2 1.8 1015.6 18.7
2017-Mar-21 12:00S 40°04' E 060°29'0 0.0 1015.4 18.8
2017-Mar-21 11:00S 40°04' E 060°29'4 0.9 1015.6 18.8
2017-Mar-21 06:00S 40°01' E 060°25'0 0.0 1016.6 18.6
2017-Mar-21 05:00S 40°01' E 060°25'1 1.1 1016.4 18.5
2017-Mar-21 04:00S 40°01' E 060°23'0 0.5 1016.1 18.6
2017-Mar-21 03:00S 40°01' E 060°23'1 0.6 1015.6 18.5
2017-Mar-21 02:00S 40°00' E 060°23'0 0.5 1015.0 18.5
2017-Mar-21 01:00S 40°00' E 060°23'0 0.0 1014.8 18.6
2017-Mar-20 23:00S 40°00' E 060°23'0 0.2 1015.0 18.6
2017-Mar-20 21:00S 40°00' E 060°23'1 0.4 1015.6 18.7
2017-Mar-20 19:00S 40°01' E 060°22'0 0.0 1015.8 18.8
2017-Mar-20 18:00S 40°01' E 060°22'1 1.3 1015.9 18.8
2017-Mar-20 17:00S 40°02' E 060°22'1 1.1 1015.9 18.9
2017-Mar-20 16:00S 40°02' E 060°20'1 1.1 1015.9 18.9
2017-Mar-20 15:00S 40°02' E 060°19'1 0.6 1015.1 18.9
2017-Mar-20 14:00S 40°02' E 060°19'2 1.9 1014.8 18.9
2017-Mar-20 13:00S 40°02' E 060°17'0 0.0 1014.5 19.0
2017-Mar-20 12:00S 40°02' E 060°17'3 2.8 1014.6 19.0
2017-Mar-20 11:00S 39°59' E 060°15'0 0.0 1014.8 19.0
2017-Mar-20 06:00S 39°59' E 060°15'0 0.0 1016.9 19.1
2017-Mar-20 05:00S 39°59' E 060°15'0 0.5 1016.7 19.1
2017-Mar-20 04:00S 39°59' E 060°16'1 0.8 1016.3 19.1
2017-Mar-20 03:00S 40°00' E 060°15'0 0.5 1016.4 19.1
2017-Mar-20 02:00S 40°00' E 060°16'1 0.8 1016.0 19.1
2017-Mar-20 01:00S 40°01' E 060°16'1 0.5 1015.8 19.1
2017-Mar-19 23:00S 40°01' E 060°15'1 1.1 1016.0 19.2
2017-Mar-19 22:00S 40°02' E 060°14'2 0.8 1016.4 19.2
2017-Mar-19 19:00S 40°01' E 060°11'2 0.8 1017.9 19.3
2017-Mar-19 17:00S 40°00' E 060°10'2 0.9 1018.7 19.3
2017-Mar-19 15:00S 39°58' E 060°10'1 0.6 1019.1 19.3
2017-Mar-19 14:00S 39°58' E 060°10'1 1.1 1019.6 19.3
2017-Mar-19 13:00S 39°57' E 060°11'2 1.8 1019.9 19.3
2017-Mar-19 12:00S 39°55' E 060°11'1 0.6 1020.4 19.3
2017-Mar-19 10:00S 39°54' E 060°11'1 0.8 1022.0 19.2
2017-Mar-19 09:00S 39°53' E 060°10'0 0.2 1022.9 19.1
2017-Mar-19 06:00S 39°53' E 060°11'0 0.5 1025.5 19.0
2017-Mar-19 05:00S 39°53' E 060°10'1 0.8 1025.7 19.1
2017-Mar-19 04:00S 39°54' E 060°10'1 1.3 1026.2 19.1
2017-Mar-19 03:00S 39°53' E 060°09'0 0.5 1026.4 19.1
2017-Mar-19 02:00S 39°53' E 060°08'2 2.2 1026.5 19.1
2017-Mar-19 01:00S 39°52' E 060°06'0 0.0 1026.6 19.1
2017-Mar-18 23:00S 39°52' E 060°06'1 1.3 1027.8 19.1
2017-Mar-18 22:00S 39°50' E 060°05'2 1.9 1028.3 19.1
2017-Mar-18 21:00S 39°49' E 060°05'0 0.0 1028.6 19.2
2017-Mar-18 19:00S 39°49' E 060°05'1 0.8 1030.0 19.4
2017-Mar-18 18:00S 39°48' E 060°04'1 0.8 1030.3 19.4
2017-Mar-18 17:00S 39°47' E 060°05'1 0.8 1030.8 19.5
2017-Mar-18 16:00S 39°47' E 060°05'1 0.8 1030.7 19.5
2017-Mar-18 15:00S 39°46' E 060°06'1 0.9 1030.3 19.6
2017-Mar-18 14:00S 39°46' E 060°07'0 0.2 1029.9 19.7
2017-Mar-18 12:00S 39°46' E 060°08'1 0.8 1029.3 19.8
2017-Mar-18 11:00S 39°47' E 060°07'0 0.0 1029.2 19.8
2017-Mar-18 10:00S 39°47' E 060°07'2 1.9 1029.1 19.7
2017-Mar-18 09:00S 39°47' E 060°05'1 0.2 1029.4 19.7
2017-Mar-18 05:00S 39°47' E 060°04'0 0.0 1028.9 19.0
2017-Mar-18 04:00S 39°47' E 060°04'0 0.5 1028.7 19.0
2017-Mar-18 03:00S 39°47' E 060°04'1 1.3 1028.2 19.0
2017-Mar-18 02:00S 39°46' E 060°04'0 0.0 1027.1 18.9
2017-Mar-18 01:00S 39°46' E 060°04'1 0.6 1026.6 18.9
2017-Mar-17 23:00S 39°44' E 060°04'0 0.5 1026.3 18.9
2017-Mar-17 22:00S 39°44' E 060°04'1 1.4 1025.9 18.9
2017-Mar-17 21:00S 39°44' E 060°06'1 0.4 1025.5 19.0
2017-Mar-17 19:00S 39°44' E 060°07'1 0.6 1025.3 19.0
2017-Mar-17 18:00S 39°44' E 060°07'0 0.5 1024.8 19.1
2017-Mar-17 17:00S 39°44' E 060°07'0 0.5 1024.1 19.1
2017-Mar-17 16:00S 39°44' E 060°07'1 0.6 1023.2 19.1
2017-Mar-17 15:00S 39°45' E 060°07'0 0.0 1021.9 19.1
2017-Mar-17 13:00S 39°45' E 060°07'0 0.5 1020.5 19.1
2017-Mar-17 12:00S 39°45' E 060°06'1 0.9 1019.9 19.1
2017-Mar-17 11:00S 39°45' E 060°05'0 0.0 1019.3 19.1
2017-Mar-17 10:00S 39°45' E 060°05'3 3.3 1019.2 19.1
2017-Mar-17 09:00S 39°43' E 060°02'0 0.0 1019.0 19.0
2017-Mar-17 06:00S 39°43' E 060°02'1 0.6 1018.8 18.9
2017-Mar-17 05:00S 39°42' E 060°02'1 1.3 1018.5 18.9
2017-Mar-17 04:00S 39°41' E 060°01'2 1.5 1018.0 18.9
2017-Mar-17 03:00S 39°40' E 060°03'0 0.0 1017.7 19.0
2017-Mar-17 02:00S 39°40' E 060°03'1 0.6 1017.2 19.1
2017-Mar-17 01:00S 39°40' E 060°03'1 0.4 1016.3 19.1
2017-Mar-16 23:00S 39°39' E 060°04'2 1.5 1015.7 19.2
2017-Mar-16 22:00S 39°40' E 060°02'0 0.0 1015.4 19.2
2017-Mar-16 21:00S 39°40' E 060°02'0 0.0 1015.1 19.2
2017-Mar-16 19:00S 39°40' E 060°02'1 1.1 1014.0 19.2
2017-Mar-16 18:00S 39°39' E 060°01'0 0.0 1013.4 19.3
2017-Mar-16 17:00S 39°39' E 060°01'3 2.8 1012.7 19.3
2017-Mar-16 16:00S 39°37' E 059°59'3 0.9 1012.0 19.3
2017-Mar-16 13:00S 39°34' E 059°58'2 1.5 1009.9 19.4
2017-Mar-16 12:00S 39°33' E 059°59'1 0.8 1009.7 19.4
2017-Mar-16 11:00S 39°32' E 059°58'7 1.4 1009.6 19.4
2017-Mar-16 06:00S 39°26' E 060°02'2 2.0 1013.8 19.2
2017-Mar-16 05:00S 39°25' E 060°04'2 1.5 1014.6 19.2
2017-Mar-16 04:00S 39°24' E 060°05'0 0.5 1015.2 19.2
2017-Mar-16 03:00S 39°24' E 060°06'0 0.0 1016.2 19.2
2017-Mar-16 02:00S 39°24' E 060°06'2 1.5 1016.6 19.2
2017-Mar-16 01:00S 39°23' E 060°07'0 0.0 1017.1 19.2
2017-Mar-16 00:00S 39°23' E 060°07'2 1.9 1017.9 19.2
2017-Mar-15 23:00S 39°21' E 060°08'1 1.4 1018.8 19.2
2017-Mar-15 22:00S 39°21' E 060°10'0 0.0 1019.1 19.2
2017-Mar-15 21:00S 39°21' E 060°10'4 1.8 1019.4 19.2
2017-Mar-15 19:00S 39°17' E 060°10'3 2.6 1020.8 19.2
2017-Mar-15 18:00S 39°16' E 060°13'2 0.9 1021.1 19.2
2017-Mar-15 16:00S 39°14' E 060°14'3 1.3 1022.9 19.3
2017-Mar-15 14:00S 39°13' E 060°17'1 0.8 1023.0 19.3
2017-Mar-15 13:00S 39°13' E 060°18'0 0.5 1023.2 19.3
2017-Mar-15 12:00S 39°13' E 060°19'5 0.9 1023.7 19.2
2017-Mar-15 06:00S 39°09' E 060°23'0 0.5 1024.3 19.3
2017-Mar-15 05:00S 39°09' E 060°24'1 0.6 1024.1 19.3
2017-Mar-15 04:00S 39°10' E 060°24'1 0.6 1024.0 19.3
2017-Mar-15 02:00S 39°09' E 060°25'0 0.0 1023.2 19.4
2017-Mar-15 01:00S 39°09' E 060°25'1 0.8 1022.9 19.4
2017-Mar-15 00:00S 39°08' E 060°26'0 0.0 1022.6 19.4
2017-Mar-14 23:00S 39°08' E 060°26'0 0.0 1022.7 19.5
2017-Mar-14 22:00S 39°08' E 060°26'0 0.0 1022.5 19.5
2017-Mar-14 21:00S 39°08' E 060°26'0 0.0 1022.3 19.5
2017-Mar-14 19:00S 39°08' E 060°26'1 0.8 1022.4 19.6
2017-Mar-14 18:00S 39°08' E 060°26'   1022.6 19.6
Track history (hours):
 
Tides and Currents Weather Stations Pressure Air Temp Water Temp Dewpoint Dewpoint Depression Visibility Wind Speed Wind Dir Waves Ship Positions

Drifting buoy 17652

Last reported at 2017-Mar-24 18:00 UTC. Time now 2017-Mar-24 22:05 UTC.
Position S 39°56' E 061°14'.

Barometer 1027.8 mb
Water temperature 18.0 ° C

Date/timePositionNaut miles runAvg speedWind from/ knotsBaromVisibWave heightAir tempDewpointWater temp
2017-Mar-24 18:00S 39°56' E 061°14'1 0.4 1027.8 18.0
2017-Mar-24 16:00S 39°56' E 061°14'1 0.9 1028.2 17.9
2017-Mar-24 15:00S 39°56' E 061°13'0 0.5 1027.9 18.0
2017-Mar-24 14:00S 39°56' E 061°13'2 0.6 1027.8 18.0
2017-Mar-24 11:00S 39°57' E 061°11'4 0.8 1027.7 17.9
2017-Mar-24 06:00S 39°57' E 061°05'0 0.5 1028.7 18.0
2017-Mar-24 05:00S 39°57' E 061°05'1 0.9 1028.5 18.1
2017-Mar-24 04:00S 39°57' E 061°04'1 0.6 1028.1 18.1
2017-Mar-24 03:00S 39°58' E 061°04'0 0.5 1027.9 18.2
2017-Mar-24 02:00S 39°58' E 061°03'0 0.5 1027.6 18.3
2017-Mar-24 01:00S 39°58' E 061°02'1 1.3 1027.3 18.3
2017-Mar-24 00:00S 39°59' E 061°02'0 0.0 1027.2 18.3
2017-Mar-23 23:00S 39°59' E 061°02'0 0.0 1027.4 18.3
2017-Mar-23 22:00S 39°59' E 061°02'4 1.0 1027.6 18.4
2017-Mar-23 18:00S 40°00' E 060°57'0 0.0 1027.1 18.4
2017-Mar-23 17:00S 40°00' E 060°57'1 1.4 1027.1 18.4
2017-Mar-23 16:00S 40°00' E 060°55'2 0.5 1026.8 18.4
2017-Mar-23 12:00S 39°59' E 060°53'0 0.5 1025.7 18.5
2017-Mar-23 11:00S 39°59' E 060°52'2 0.4 1025.8 18.5
2017-Mar-23 05:00S 40°01' E 060°50'0 0.0 1026.4 18.3
2017-Mar-23 04:00S 40°01' E 060°50'1 0.5 1025.9 18.3
2017-Mar-23 02:00S 40°01' E 060°49'1 1.1 1025.1 18.3
2017-Mar-23 01:00S 40°00' E 060°47'1 1.1 1024.5 18.3
2017-Mar-23 00:00S 40°01' E 060°46'0 0.0 1024.7 18.3
2017-Mar-22 23:00S 40°01' E 060°46'0 0.0 1024.6 18.3
2017-Mar-22 22:00S 40°01' E 060°46'1 1.1 1024.9 18.3
2017-Mar-22 21:00S 40°00' E 060°45'1 0.3 1025.1 18.3
2017-Mar-22 19:00S 39°59' E 060°45'0 0.0 1025.5 18.3
2017-Mar-22 13:00S 39°59' E 060°45'0 0.0 1023.7 18.4
2017-Mar-22 12:00S 39°59' E 060°45'1 0.8 1023.5 18.4
2017-Mar-22 11:00S 40°00' E 060°44'2 1.9 1022.9 18.4
2017-Mar-22 10:00S 40°01' E 060°42'1 0.2 1022.8 18.4
2017-Mar-22 06:00S 40°01' E 060°43'0 0.0 1022.4 18.3
2017-Mar-22 05:00S 40°01' E 060°43'2 2.2 1021.9 18.3
2017-Mar-22 04:00S 40°02' E 060°40'0 0.0 1021.2 18.2
2017-Mar-22 03:00S 40°02' E 060°40'2 1.8 1020.4 18.2
2017-Mar-22 02:00S 40°02' E 060°38'0 0.0 1019.3 18.2
2017-Mar-22 01:00S 40°02' E 060°38'1 0.4 1018.8 18.3
2017-Mar-21 22:00S 40°02' E 060°37'0 0.2 1017.9 18.4
2017-Mar-21 19:00S 40°02' E 060°36'0 0.0 1017.7 18.5
2017-Mar-21 18:00S 40°02' E 060°36'1 0.8 1017.8 18.5
2017-Mar-21 17:00S 40°02' E 060°35'1 0.8 1017.7 18.5
2017-Mar-21 16:00S 40°03' E 060°35'2 1.8 1017.4 18.6
2017-Mar-21 15:00S 40°03' E 060°32'0 0.5 1016.6 18.6
2017-Mar-21 14:00S 40°03' E 060°33'1 1.1 1016.1 18.6
2017-Mar-21 13:00S 40°04' E 060°32'2 1.8 1015.6 18.7
2017-Mar-21 12:00S 40°04' E 060°29'0 0.0 1015.4 18.8
2017-Mar-21 11:00S 40°04' E 060°29'4 0.9 1015.6 18.8
2017-Mar-21 06:00S 40°01' E 060°25'0 0.0 1016.6 18.6
2017-Mar-21 05:00S 40°01' E 060°25'1 1.1 1016.4 18.5
2017-Mar-21 04:00S 40°01' E 060°23'0 0.5 1016.1 18.6
2017-Mar-21 03:00S 40°01' E 060°23'1 0.6 1015.6 18.5
2017-Mar-21 02:00S 40°00' E 060°23'0 0.5 1015.0 18.5
2017-Mar-21 01:00S 40°00' E 060°23'0 0.0 1014.8 18.6
2017-Mar-20 23:00S 40°00' E 060°23'0 0.2 1015.0 18.6
2017-Mar-20 21:00S 40°00' E 060°23'1 0.4 1015.6 18.7
2017-Mar-20 19:00S 40°01' E 060°22'0 0.0 1015.8 18.8
2017-Mar-20 18:00S 40°01' E 060°22'1 1.3 1015.9 18.8
2017-Mar-20 17:00S 40°02' E 060°22'1 1.1 1015.9 18.9
2017-Mar-20 16:00S 40°02' E 060°20'1 1.1 1015.9 18.9
2017-Mar-20 15:00S 40°02' E 060°19'1 0.6 1015.1 18.9
2017-Mar-20 14:00S 40°02' E 060°19'2 1.9 1014.8 18.9
2017-Mar-20 13:00S 40°02' E 060°17'0 0.0 1014.5 19.0
2017-Mar-20 12:00S 40°02' E 060°17'3 2.8 1014.6 19.0
2017-Mar-20 11:00S 39°59' E 060°15'0 0.0 1014.8 19.0
2017-Mar-20 06:00S 39°59' E 060°15'0 0.0 1016.9 19.1
2017-Mar-20 05:00S 39°59' E 060°15'0 0.5 1016.7 19.1
2017-Mar-20 04:00S 39°59' E 060°16'1 0.8 1016.3 19.1
2017-Mar-20 03:00S 40°00' E 060°15'0 0.5 1016.4 19.1
2017-Mar-20 02:00S 40°00' E 060°16'1 0.8 1016.0 19.1
2017-Mar-20 01:00S 40°01' E 060°16'1 0.5 1015.8 19.1
2017-Mar-19 23:00S 40°01' E 060°15'1 1.1 1016.0 19.2
2017-Mar-19 22:00S 40°02' E 060°14'2 0.8 1016.4 19.2
2017-Mar-19 19:00S 40°01' E 060°11'2 0.8 1017.9 19.3
2017-Mar-19 17:00S 40°00' E 060°10'2 0.9 1018.7 19.3
2017-Mar-19 15:00S 39°58' E 060°10'1 0.6 1019.1 19.3
2017-Mar-19 14:00S 39°58' E 060°10'1 1.1 1019.6 19.3
2017-Mar-19 13:00S 39°57' E 060°11'2 1.8 1019.9 19.3
2017-Mar-19 12:00S 39°55' E 060°11'1 0.6 1020.4 19.3
2017-Mar-19 10:00S 39°54' E 060°11'1 0.8 1022.0 19.2
2017-Mar-19 09:00S 39°53' E 060°10'0 0.2 1022.9 19.1
2017-Mar-19 06:00S 39°53' E 060°11'0 0.5 1025.5 19.0
2017-Mar-19 05:00S 39°53' E 060°10'1 0.8 1025.7 19.1
2017-Mar-19 04:00S 39°54' E 060°10'1 1.3 1026.2 19.1
2017-Mar-19 03:00S 39°53' E 060°09'0 0.5 1026.4 19.1
2017-Mar-19 02:00S 39°53' E 060°08'2 2.2 1026.5 19.1
2017-Mar-19 01:00S 39°52' E 060°06'0 0.0 1026.6 19.1
2017-Mar-18 23:00S 39°52' E 060°06'1 1.3 1027.8 19.1
2017-Mar-18 22:00S 39°50' E 060°05'2 1.9 1028.3 19.1
2017-Mar-18 21:00S 39°49' E 060°05'0 0.0 1028.6 19.2
2017-Mar-18 19:00S 39°49' E 060°05'1 0.8 1030.0 19.4
2017-Mar-18 18:00S 39°48' E 060°04'1 0.8 1030.3 19.4
2017-Mar-18 17:00S 39°47' E 060°05'1 0.8 1030.8 19.5
2017-Mar-18 16:00S 39°47' E 060°05'1 0.8 1030.7 19.5
2017-Mar-18 15:00S 39°46' E 060°06'1 0.9 1030.3 19.6
2017-Mar-18 14:00S 39°46' E 060°07'0 0.2 1029.9 19.7
2017-Mar-18 12:00S 39°46' E 060°08'1 0.8 1029.3 19.8
2017-Mar-18 11:00S 39°47' E 060°07'0 0.0 1029.2 19.8
2017-Mar-18 10:00S 39°47' E 060°07'2 1.9 1029.1 19.7
2017-Mar-18 09:00S 39°47' E 060°05'1 0.2 1029.4 19.7
2017-Mar-18 05:00S 39°47' E 060°04'0 0.0 1028.9 19.0
2017-Mar-18 04:00S 39°47' E 060°04'0 0.5 1028.7 19.0
2017-Mar-18 03:00S 39°47' E 060°04'1 1.3 1028.2 19.0
2017-Mar-18 02:00S 39°46' E 060°04'0 0.0 1027.1 18.9
2017-Mar-18 01:00S 39°46' E 060°04'1 0.6 1026.6 18.9
2017-Mar-17 23:00S 39°44' E 060°04'0 0.5 1026.3 18.9
2017-Mar-17 22:00S 39°44' E 060°04'1 1.4 1025.9 18.9
2017-Mar-17 21:00S 39°44' E 060°06'1 0.4 1025.5 19.0
2017-Mar-17 19:00S 39°44' E 060°07'1 0.6 1025.3 19.0
2017-Mar-17 18:00S 39°44' E 060°07'0 0.5 1024.8 19.1
2017-Mar-17 17:00S 39°44' E 060°07'0 0.5 1024.1 19.1
2017-Mar-17 16:00S 39°44' E 060°07'1 0.6 1023.2 19.1
2017-Mar-17 15:00S 39°45' E 060°07'0 0.0 1021.9 19.1
2017-Mar-17 13:00S 39°45' E 060°07'0 0.5 1020.5 19.1
2017-Mar-17 12:00S 39°45' E 060°06'1 0.9 1019.9 19.1
2017-Mar-17 11:00S 39°45' E 060°05'0 0.0 1019.3 19.1
2017-Mar-17 10:00S 39°45' E 060°05'3 3.3 1019.2 19.1
2017-Mar-17 09:00S 39°43' E 060°02'0 0.0 1019.0 19.0
2017-Mar-17 06:00S 39°43' E 060°02'1 0.6 1018.8 18.9
2017-Mar-17 05:00S 39°42' E 060°02'1 1.3 1018.5 18.9
2017-Mar-17 04:00S 39°41' E 060°01'2 1.5 1018.0 18.9
2017-Mar-17 03:00S 39°40' E 060°03'0 0.0 1017.7 19.0
2017-Mar-17 02:00S 39°40' E 060°03'1 0.6 1017.2 19.1
2017-Mar-17 01:00S 39°40' E 060°03'1 0.4 1016.3 19.1
2017-Mar-16 23:00S 39°39' E 060°04'2 1.5 1015.7 19.2
2017-Mar-16 22:00S 39°40' E 060°02'0 0.0 1015.4 19.2
2017-Mar-16 21:00S 39°40' E 060°02'0 0.0 1015.1 19.2
2017-Mar-16 19:00S 39°40' E 060°02'1 1.1 1014.0 19.2
2017-Mar-16 18:00S 39°39' E 060°01'0 0.0 1013.4 19.3
2017-Mar-16 17:00S 39°39' E 060°01'3 2.8 1012.7 19.3
2017-Mar-16 16:00S 39°37' E 059°59'3 0.9 1012.0 19.3
2017-Mar-16 13:00S 39°34' E 059°58'2 1.5 1009.9 19.4
2017-Mar-16 12:00S 39°33' E 059°59'1 0.8 1009.7 19.4
2017-Mar-16 11:00S 39°32' E 059°58'7 1.4 1009.6 19.4
2017-Mar-16 06:00S 39°26' E 060°02'2 2.0 1013.8 19.2
2017-Mar-16 05:00S 39°25' E 060°04'2 1.5 1014.6 19.2
2017-Mar-16 04:00S 39°24' E 060°05'0 0.5 1015.2 19.2
2017-Mar-16 03:00S 39°24' E 060°06'0 0.0 1016.2 19.2
2017-Mar-16 02:00S 39°24' E 060°06'2 1.5 1016.6 19.2
2017-Mar-16 01:00S 39°23' E 060°07'0 0.0 1017.1 19.2
2017-Mar-16 00:00S 39°23' E 060°07'2 1.9 1017.9 19.2
2017-Mar-15 23:00S 39°21' E 060°08'1 1.4 1018.8 19.2
2017-Mar-15 22:00S 39°21' E 060°10'0 0.0 1019.1 19.2
2017-Mar-15 21:00S 39°21' E 060°10'4 1.8 1019.4 19.2
2017-Mar-15 19:00S 39°17' E 060°10'3 2.6 1020.8 19.2
2017-Mar-15 18:00S 39°16' E 060°13'2 0.9 1021.1 19.2
2017-Mar-15 16:00S 39°14' E 060°14'3 1.3 1022.9 19.3
2017-Mar-15 14:00S 39°13' E 060°17'1 0.8 1023.0 19.3
2017-Mar-15 13:00S 39°13' E 060°18'0 0.5 1023.2 19.3
2017-Mar-15 12:00S 39°13' E 060°19'5 0.9 1023.7 19.2
2017-Mar-15 06:00S 39°09' E 060°23'0 0.5 1024.3 19.3
2017-Mar-15 05:00S 39°09' E 060°24'1 0.6 1024.1 19.3
2017-Mar-15 04:00S 39°10' E 060°24'1 0.6 1024.0 19.3
2017-Mar-15 02:00S 39°09' E 060°25'0 0.0 1023.2 19.4
2017-Mar-15 01:00S 39°09' E 060°25'1 0.8 1022.9 19.4
2017-Mar-15 00:00S 39°08' E 060°26'0 0.0 1022.6 19.4
2017-Mar-14 23:00S 39°08' E 060°26'0 0.0 1022.7 19.5
2017-Mar-14 22:00S 39°08' E 060°26'0 0.0 1022.5 19.5
2017-Mar-14 21:00S 39°08' E 060°26'0 0.0 1022.3 19.5
2017-Mar-14 19:00S 39°08' E 060°26'1 0.8 1022.4 19.6
2017-Mar-14 18:00S 39°08' E 060°26'   1022.6 19.6

Dump ship's entire track history